PWSweather.com
Personal Weather Stations
Station Observations
VAGALAX1
Taylorwoods , Galax, VA 24333

Taylorwoods Galax, VA 24333

Lat: 36.679, Lon: -80.888

Elevation: 2650

Station Type: Davis Vantage Pro 2

Latest ConditionsUpdated 2:50:01 AM EDT Sunday, Jul 23, 2017
Currently Today's Max Today's Min Today's Average
Temperature 74.1°F23.4°C 75.1°F23.9°C 74.1°F23.4°C 74.7°F23.7°C
Dew Point 69.6°F20.9°C 70.3°F21.3°C 69.6°F20.9°C 70.0°F21.1°C
Winds Calm Calm Calm WCalm W - Calm Calm
Wind Gusts -- 2.3 mph3.7 kmh - -
Humidity 86% 86% 84% 85%
Pressure 29.87 in1011.5 mb 29.90 in1012.5 mb 29.87 in1011.5 mb -
Hour Temp Dew Point Humidity Winds Wind Gusts Pressure Precip Precip Rate Daily Precip Total
02:50 AM 74.1°F23.4°C 69.6°F20.9°C 86% Calm Calm -- 29.87 in1011.5 mb - 0.00 in0.0 mm 0.00 in0.0 mm
02:45 AM 74.2°F23.4°C 69.7°F20.9°C 86% Calm Calm -- 29.87 in1011.5 mb - 0.00 in0.0 mm 0.00 in0.0 mm
02:40 AM 74.3°F23.5°C 69.8°F21.0°C 86% Calm Calm -- 29.87 in1011.5 mb - 0.00 in0.0 mm 0.00 in0.0 mm
02:35 AM 74.3°F23.5°C 69.8°F21.0°C 86% Calm Calm -- 29.87 in1011.5 mb - 0.00 in0.0 mm 0.00 in0.0 mm
02:30 AM 74.4°F23.6°C 69.9°F21.1°C 86% Calm Calm -- 29.87 in1011.5 mb - 0.00 in0.0 mm 0.00 in0.0 mm
02:25 AM 74.4°F23.6°C 69.9°F21.1°C 86% Calm Calm -- 29.87 in1011.5 mb - 0.00 in0.0 mm 0.00 in0.0 mm
02:20 AM 74.4°F23.6°C 69.9°F21.1°C 86% Calm Calm -- 29.88 in1011.9 mb - 0.00 in0.0 mm 0.00 in0.0 mm
02:15 AM 74.5°F23.6°C 69.7°F20.9°C 85% Calm Calm -- 29.88 in1011.9 mb - 0.00 in0.0 mm 0.00 in0.0 mm
02:10 AM 74.5°F23.6°C 69.7°F20.9°C 85% Calm Calm -- 29.89 in1012.2 mb - 0.00 in0.0 mm 0.00 in0.0 mm
02:00 AM 74.6°F23.7°C 69.8°F21.0°C 85% Calm Calm -- 29.89 in1012.2 mb - 0.00 in0.0 mm 0.00 in0.0 mm
01:55 AM 74.6°F23.7°C 69.8°F21.0°C 85% Calm Calm -- 29.89 in1012.2 mb - 0.00 in0.0 mm 0.00 in0.0 mm
01:50 AM 74.6°F23.7°C 70.1°F21.2°C 86% Calm Calm -- 29.89 in1012.2 mb - 0.00 in0.0 mm 0.00 in0.0 mm
01:45 AM 74.7°F23.7°C 69.9°F21.1°C 85% Calm Calm -- 29.89 in1012.2 mb - 0.00 in0.0 mm 0.00 in0.0 mm
01:40 AM 74.7°F23.7°C 69.9°F21.1°C 85% Calm Calm -- 29.89 in1012.2 mb - 0.00 in0.0 mm 0.00 in0.0 mm
01:35 AM 74.7°F23.7°C 69.9°F21.1°C 85% Calm Calm -- 29.89 in1012.2 mb - 0.00 in0.0 mm 0.00 in0.0 mm
01:30 AM 74.7°F23.7°C 70.2°F21.2°C 86% Calm Calm -- 29.88 in1011.9 mb - 0.00 in0.0 mm 0.00 in0.0 mm
01:25 AM 74.8°F23.8°C 70.3°F21.3°C 86% Calm Calm -- 29.88 in1011.9 mb - 0.00 in0.0 mm 0.00 in0.0 mm
01:20 AM 74.8°F23.8°C 70.3°F21.3°C 86% Calm Calm -- 29.89 in1012.2 mb - 0.00 in0.0 mm 0.00 in0.0 mm
01:15 AM 74.8°F23.8°C 70.3°F21.3°C 86% Calm Calm -- 29.89 in1012.2 mb - 0.00 in0.0 mm 0.00 in0.0 mm
01:10 AM 74.8°F23.8°C 70.3°F21.3°C 86% Calm Calm -- 29.89 in1012.2 mb - 0.00 in0.0 mm 0.00 in0.0 mm
01:00 AM 74.8°F23.8°C 70.3°F21.3°C 86% Calm Calm -- 29.89 in1012.2 mb - 0.00 in0.0 mm 0.00 in0.0 mm
12:55 AM 74.8°F23.8°C 70.0°F21.1°C 85% Calm Calm -- 29.89 in1012.2 mb - 0.00 in0.0 mm 0.00 in0.0 mm
12:50 AM 74.8°F23.8°C 70.0°F21.1°C 85% Calm Calm 2.3 mph3.7 kmh 29.89 in1012.2 mb - 0.00 in0.0 mm 0.00 in0.0 mm
12:45 AM 74.8°F23.8°C 70.0°F21.1°C 85% Calm Calm -- 29.90 in1012.5 mb - 0.00 in0.0 mm 0.00 in0.0 mm
12:40 AM 74.8°F23.8°C 70.0°F21.1°C 85% Calm Calm -- 29.89 in1012.2 mb - 0.00 in0.0 mm 0.00 in0.0 mm
12:35 AM 74.9°F23.8°C 70.1°F21.2°C 85% Calm Calm -- 29.90 in1012.5 mb - 0.00 in0.0 mm 0.00 in0.0 mm
12:30 AM 74.9°F23.8°C 70.1°F21.2°C 85% Calm Calm -- 29.89 in1012.2 mb - 0.00 in0.0 mm 0.00 in0.0 mm
12:25 AM 74.9°F23.8°C 70.1°F21.2°C 85% Calm Calm -- 29.90 in1012.5 mb - 0.00 in0.0 mm 0.00 in0.0 mm
12:20 AM 74.9°F23.8°C 70.1°F21.2°C 85% Calm Calm -- 29.90 in1012.5 mb - 0.00 in0.0 mm 0.00 in0.0 mm
12:15 AM 74.9°F23.8°C 70.1°F21.2°C 85% Calm Calm -- 29.89 in1012.2 mb - 0.00 in0.0 mm 0.00 in0.0 mm
12:10 AM 75.0°F23.9°C 70.2°F21.2°C 85% Calm Calm -- 29.90 in1012.5 mb - 0.00 in0.0 mm 0.00 in0.0 mm
12:00 AM 75.1°F23.9°C 69.9°F21.1°C 84% Calm Calm -- 29.90 in1012.5 mb - 0.00 in0.0 mm 0.00 in0.0 mm